createdAt,value
2022-09-05T00:00:19.381Z,17.10
2022-09-05T00:03:20.080Z,17.09
2022-09-05T00:06:01.968Z,17.09
2022-09-05T00:08:42.681Z,17.08
2022-09-05T00:11:40.659Z,17.01
2022-09-05T00:15:16.685Z,16.94
2022-09-05T00:19:28.444Z,16.92
2022-09-05T00:24:20.309Z,16.97
2022-09-05T00:24:54.742Z,16.83
2022-09-05T00:27:32.099Z,16.79
2022-09-05T00:31:51.533Z,16.82
2022-09-05T00:33:17.874Z,16.80
2022-09-05T00:36:08.729Z,16.85
2022-09-05T00:38:40.961Z,16.44
2022-09-05T00:41:13.634Z,16.74
2022-09-05T00:43:42.316Z,16.62
2022-09-05T00:46:26.585Z,16.58
2022-09-05T00:49:28.787Z,16.54
2022-09-05T00:51:58.821Z,16.51
2022-09-05T00:54:47.105Z,16.46
2022-09-05T00:57:30.610Z,16.45
2022-09-05T01:00:18.172Z,16.32
2022-09-05T01:02:51.609Z,16.34
2022-09-05T01:05:44.934Z,16.21
2022-09-05T01:08:46.198Z,16.20
2022-09-05T01:11:35.682Z,16.18
2022-09-05T01:14:30.678Z,16.12
2022-09-05T01:17:22.047Z,16.11
2022-09-05T01:20:29.912Z,16.04
2022-09-05T01:23:27.217Z,15.99
2022-09-05T01:26:07.803Z,15.96
2022-09-05T01:29:16.217Z,15.89
2022-09-05T01:32:15.315Z,15.84
2022-09-05T01:34:57.649Z,15.64
2022-09-05T01:37:48.509Z,15.84
2022-09-05T01:40:51.565Z,15.82
2022-09-05T01:44:00.013Z,15.77
2022-09-05T01:46:39.204Z,15.68
2022-09-05T01:49:53.247Z,15.66
2022-09-05T01:53:04.623Z,15.63
2022-09-05T01:56:04.353Z,15.52
2022-09-05T01:58:57.957Z,15.34
2022-09-05T02:01:39.902Z,15.45
2022-09-05T02:04:12.858Z,15.47
2022-09-05T02:07:19.354Z,15.47
2022-09-05T02:10:07.978Z,15.48
2022-09-05T02:12:43.997Z,15.52
2022-09-05T02:15:37.852Z,15.37
2022-09-05T02:18:11.094Z,15.38
2022-09-05T02:20:41.102Z,15.36
2022-09-05T02:23:41.822Z,15.38
2022-09-05T02:26:24.194Z,15.02
2022-09-05T02:29:10.774Z,15.32
2022-09-05T02:31:49.367Z,15.27
2022-09-05T02:34:25.522Z,15.17
2022-09-05T02:37:03.310Z,15.17
2022-09-05T02:45:03.689Z,15.22
2022-09-05T02:45:19.265Z,14.98
2022-09-05T02:45:49.302Z,15.03
2022-09-05T02:48:31.752Z,14.94
2022-09-05T02:57:25.701Z,14.92
2022-09-05T02:57:35.412Z,14.84
2022-09-05T02:58:04.561Z,14.80
2022-09-05T02:59:54.187Z,14.77
2022-09-05T03:02:39.922Z,14.78
2022-09-05T03:05:25.258Z,14.80
2022-09-05T03:07:58.514Z,14.81
2022-09-05T03:10:55.372Z,14.77
2022-09-05T03:14:06.398Z,14.53
2022-09-05T03:17:24.466Z,14.73
2022-09-05T03:20:32.567Z,14.66
2022-09-05T03:23:23.494Z,14.61
2022-09-05T03:26:27.238Z,14.60
2022-09-05T03:29:13.077Z,14.59
2022-09-05T03:32:06.462Z,14.37
2022-09-05T03:35:16.986Z,14.60
2022-09-05T03:38:34.836Z,14.58
2022-09-05T03:41:16.627Z,14.57
2022-09-05T03:43:55.811Z,14.49
2022-09-05T03:47:20.256Z,14.39
2022-09-05T03:53:16.415Z,14.45
2022-09-05T03:57:17.339Z,14.30
2022-09-05T03:57:20.297Z,14.41
2022-09-05T03:59:44.899Z,14.31
2022-09-05T04:03:10.593Z,14.29
2022-09-05T04:08:13.749Z,14.09
2022-09-05T04:08:31.880Z,14.26
2022-09-05T04:11:02.179Z,14.32
2022-09-05T04:13:46.429Z,14.30
2022-09-05T04:16:20.261Z,14.20
2022-09-05T04:19:18.461Z,14.24
2022-09-05T04:21:59.277Z,14.08
2022-09-05T04:24:53.079Z,14.07
2022-09-05T04:27:49.882Z,14.14
2022-09-05T04:30:40.573Z,14.11
2022-09-05T04:33:35.844Z,14.09
2022-09-05T04:36:25.103Z,14.13
2022-09-05T04:39:19.829Z,14.11
2022-09-05T04:41:51.518Z,14.02
2022-09-05T04:44:26.555Z,13.80
2022-09-05T04:47:28.004Z,14.04
2022-09-05T04:50:23.334Z,14.09
2022-09-05T04:53:26.947Z,13.92
2022-09-05T04:55:57.871Z,14.03
2022-09-05T05:00:15.462Z,14.06
2022-09-05T05:06:13.106Z,14.12
2022-09-05T05:06:16.121Z,14.10
2022-09-05T05:08:01.113Z,14.02
2022-09-05T05:15:21.737Z,14.09
2022-09-05T05:17:58.392Z,13.89
2022-09-05T05:18:10.906Z,14.23
2022-09-05T05:19:27.201Z,14.25
2022-09-05T05:21:58.109Z,14.45
2022-09-05T05:24:35.300Z,14.47
2022-09-05T05:27:25.818Z,14.53
2022-09-05T05:29:59.622Z,14.41
2022-09-05T05:32:45.913Z,14.43
2022-09-05T05:35:13.563Z,14.56
2022-09-05T05:37:53.039Z,14.64
2022-09-05T05:40:26.259Z,14.61
2022-09-05T05:43:15.010Z,14.57
2022-09-05T05:45:42.949Z,14.60
2022-09-05T05:48:12.876Z,14.71
2022-09-05T05:50:54.442Z,14.78
2022-09-05T05:53:30.388Z,14.76
2022-09-05T05:56:30.998Z,14.88
2022-09-05T05:59:13.045Z,15.02
2022-09-05T06:01:52.421Z,15.02
2022-09-05T06:05:00.724Z,15.23
2022-09-05T06:08:10.238Z,15.32
2022-09-05T06:14:59.829Z,15.62
2022-09-05T06:15:03.764Z,15.27
2022-09-05T06:17:28.398Z,15.64
2022-09-05T06:22:08.689Z,15.82
2022-09-05T06:23:30.810Z,15.89
2022-09-05T06:26:20.992Z,16.20
2022-09-05T06:29:02.938Z,16.37
2022-09-05T06:31:52.898Z,16.51
2022-09-05T06:34:38.576Z,16.51
2022-09-05T06:37:24.916Z,16.57
2022-09-05T06:40:11.832Z,16.66
2022-09-05T06:43:02.551Z,16.83
2022-09-05T06:45:58.619Z,17.00
2022-09-05T06:48:45.540Z,17.07
2022-09-05T06:51:35.612Z,17.06
2022-09-05T06:54:31.436Z,17.13
2022-09-05T06:57:20.304Z,17.11
2022-09-05T07:00:21.697Z,17.38
2022-09-05T07:02:59.331Z,17.53
2022-09-05T07:05:39.421Z,17.73
2022-09-05T07:08:35.201Z,17.85
2022-09-05T07:11:18.382Z,17.94
2022-09-05T07:13:57.233Z,18.01
2022-09-05T07:16:38.091Z,17.97
2022-09-05T07:19:34.514Z,18.04
2022-09-05T07:22:29.558Z,18.23
2022-09-05T07:25:09.611Z,18.56
2022-09-05T07:28:28.302Z,18.66
2022-09-05T07:30:32.842Z,18.84
2022-09-05T07:33:03.550Z,18.89
2022-09-05T07:35:41.386Z,19.14
2022-09-05T07:38:52.082Z,19.31
2022-09-05T07:41:32.707Z,19.53
2022-09-05T07:44:14.049Z,19.76
2022-09-05T07:46:42.306Z,20.03
2022-09-05T07:49:14.555Z,20.02
2022-09-05T07:56:55.662Z,20.42
2022-09-05T07:57:03.721Z,20.70
2022-09-05T07:57:50.996Z,20.91
2022-09-05T08:00:26.864Z,21.13
2022-09-05T08:03:09.202Z,21.33
2022-09-05T08:05:40.807Z,21.28
2022-09-05T08:08:13.322Z,21.64
2022-09-05T08:11:23.217Z,21.68
2022-09-05T08:13:40.020Z,22.05
2022-09-05T08:16:13.624Z,22.20
2022-09-05T08:18:54.641Z,22.37
2022-09-05T08:21:28.169Z,22.35
2022-09-05T08:23:58.046Z,22.54
2022-09-05T08:26:36.697Z,22.88
2022-09-05T08:29:11.175Z,22.71
2022-09-05T08:31:52.453Z,23.15
2022-09-05T08:34:44.921Z,23.30
2022-09-05T08:37:21.135Z,23.46
2022-09-05T08:40:03.869Z,23.48
2022-09-05T08:45:52.017Z,23.66
2022-09-05T08:46:43.899Z,23.85
2022-09-05T08:49:36.885Z,23.97
2022-09-05T08:52:42.919Z,23.99
2022-09-05T08:55:30.359Z,24.13
2022-09-05T08:58:27.412Z,23.95
2022-09-05T09:01:36.853Z,24.32
2022-09-05T09:05:02.175Z,24.44
2022-09-05T09:07:51.535Z,24.52
2022-09-05T09:10:46.880Z,24.54
2022-09-05T09:13:52.204Z,24.70
2022-09-05T09:16:30.282Z,24.80
2022-09-05T09:19:12.162Z,24.77
2022-09-05T09:21:48.766Z,24.68
2022-09-05T09:24:35.783Z,24.96
2022-09-05T09:27:09.268Z,25.11
2022-09-05T09:29:40.035Z,24.96
2022-09-05T09:32:13.570Z,25.33
2022-09-05T09:34:59.749Z,25.31
2022-09-05T09:38:06.792Z,25.40
2022-09-05T09:41:02.412Z,25.62
2022-09-05T09:44:07.849Z,25.75
2022-09-05T09:46:45.390Z,25.64
2022-09-05T09:49:39.253Z,26.00
2022-09-05T09:52:24.917Z,25.77
2022-09-05T09:55:56.281Z,25.91
2022-09-05T09:58:54.222Z,26.29
2022-09-05T10:01:39.440Z,26.36
2022-09-05T10:10:39.008Z,26.52
2022-09-05T10:10:49.914Z,26.56
2022-09-05T10:10:52.398Z,26.02
2022-09-05T10:13:35.831Z,26.54
2022-09-05T10:16:24.618Z,26.70
2022-09-05T10:19:16.984Z,26.54
2022-09-05T10:25:18.765Z,27.68
2022-09-05T10:28:11.771Z,27.08
2022-09-05T10:32:45.343Z,27.66
2022-09-05T10:35:15.252Z,27.29
2022-09-05T10:37:10.808Z,27.30
2022-09-05T10:39:43.562Z,27.76
2022-09-05T10:42:17.097Z,27.73
2022-09-05T10:44:55.945Z,27.66
2022-09-05T10:47:53.802Z,27.25
2022-09-05T10:50:28.966Z,27.31
2022-09-05T10:53:06.446Z,27.20
2022-09-05T10:55:52.406Z,27.32
2022-09-05T11:02:18.707Z,27.35
2022-09-05T11:02:29.554Z,27.31
2022-09-05T11:04:51.207Z,27.03
2022-09-05T11:07:27.879Z,27.06
2022-09-05T11:10:02.901Z,27.71
2022-09-05T11:12:34.000Z,28.07
2022-09-05T11:15:06.618Z,28.38
2022-09-05T11:18:03.804Z,28.60
2022-09-05T11:21:12.129Z,28.43
2022-09-05T11:23:47.568Z,28.48
2022-09-05T11:26:33.579Z,28.50
2022-09-05T11:29:14.088Z,27.97
2022-09-05T11:36:35.289Z,28.24
2022-09-05T11:37:59.705Z,28.98
2022-09-05T11:40:10.677Z,28.68
2022-09-05T11:41:08.479Z,28.92
2022-09-05T11:43:57.430Z,28.66
2022-09-05T11:46:58.346Z,28.84
2022-09-05T11:50:19.415Z,28.06
2022-09-05T11:52:51.374Z,27.90
2022-09-05T11:55:33.135Z,27.69
2022-09-05T11:58:43.842Z,27.74
2022-09-05T12:01:42.228Z,27.88
2022-09-05T12:04:29.422Z,27.54
2022-09-05T12:07:26.355Z,27.89
2022-09-05T12:10:47.280Z,28.16
2022-09-05T12:13:21.733Z,28.40
2022-09-05T12:18:55.124Z,28.84
2022-09-05T12:21:42.527Z,29.06
2022-09-05T12:25:24.153Z,29.10
2022-09-05T12:27:41.088Z,28.98
2022-09-05T12:30:14.187Z,29.07
2022-09-05T12:36:02.885Z,28.96
2022-09-05T12:36:07.543Z,29.00
2022-09-05T12:40:25.373Z,28.98
2022-09-05T12:41:41.217Z,28.45
2022-09-05T12:42:14.678Z,29.13
2022-09-05T12:45:09.128Z,29.02
2022-09-05T12:48:04.038Z,29.28
2022-09-05T12:50:43.274Z,29.17
2022-09-05T12:53:18.346Z,29.09
2022-09-05T12:57:50.335Z,29.00
2022-09-05T13:03:04.769Z,29.06
2022-09-05T13:03:08.221Z,29.20
2022-09-05T13:04:51.268Z,29.04
2022-09-05T13:07:43.998Z,28.76
2022-09-05T13:14:33.493Z,29.07
2022-09-05T13:14:53.765Z,28.89
2022-09-05T13:16:24.922Z,28.64
2022-09-05T13:19:02.246Z,28.91
2022-09-05T13:21:31.178Z,29.03
2022-09-05T13:24:05.116Z,29.08
2022-09-05T13:26:37.898Z,29.12
2022-09-05T13:29:16.046Z,29.02
2022-09-05T13:37:53.927Z,28.95
2022-09-05T13:37:58.216Z,28.73
2022-09-05T13:38:29.263Z,28.03
2022-09-05T13:40:48.834Z,28.20
2022-09-05T13:43:29.552Z,28.45
2022-09-05T13:46:06.313Z,28.63
2022-09-05T13:51:41.596Z,28.79
2022-09-05T13:54:38.182Z,28.84
2022-09-05T13:57:32.362Z,28.80
2022-09-05T14:00:15.401Z,28.91
2022-09-05T14:03:37.961Z,28.92
2022-09-05T14:06:47.126Z,28.47
2022-09-05T14:09:39.297Z,28.83
2022-09-05T14:12:37.264Z,29.02
2022-09-05T14:15:24.873Z,28.82
2022-09-05T14:18:20.471Z,28.52
2022-09-05T14:21:17.283Z,28.62
2022-09-05T14:23:55.951Z,28.57
2022-09-05T14:26:29.104Z,28.63
2022-09-05T14:29:19.555Z,28.74
2022-09-05T14:37:38.656Z,29.11
2022-09-05T14:37:40.298Z,29.21
2022-09-05T14:38:30.272Z,29.38
2022-09-05T14:41:25.619Z,29.47
2022-09-05T14:44:37.842Z,29.23
2022-09-05T14:47:36.290Z,29.54
2022-09-05T14:50:18.294Z,29.46
2022-09-05T14:57:23.074Z,29.24
2022-09-05T15:02:52.292Z,28.97
2022-09-05T15:02:58.665Z,29.12
2022-09-05T15:05:13.323Z,28.96
2022-09-05T15:07:43.932Z,28.86
2022-09-05T15:12:18.511Z,28.84
2022-09-05T15:13:02.973Z,28.80
2022-09-05T15:15:35.760Z,28.78
2022-09-05T15:18:09.983Z,29.19
2022-09-05T15:20:43.829Z,29.20
2022-09-05T15:23:28.317Z,29.33
2022-09-05T15:26:00.989Z,29.28
2022-09-05T15:28:36.034Z,29.32
2022-09-05T15:31:10.530Z,29.40
2022-09-05T15:33:40.718Z,29.31
2022-09-05T15:36:13.333Z,29.68
2022-09-05T15:38:54.868Z,29.82
2022-09-05T15:41:27.824Z,29.91
2022-09-05T15:43:58.313Z,30.24
2022-09-05T15:46:34.244Z,30.64
2022-09-05T15:49:06.470Z,30.86
2022-09-05T15:51:51.644Z,31.14
2022-09-05T15:54:50.391Z,31.87
2022-09-05T15:57:39.921Z,31.50
2022-09-05T16:00:10.209Z,30.52
2022-09-05T16:02:45.924Z,29.73
2022-09-05T16:10:28.408Z,29.02
2022-09-05T16:10:37.063Z,29.08
2022-09-05T16:12:03.491Z,29.29
2022-09-05T16:14:23.890Z,28.50
2022-09-05T16:23:20.711Z,27.89
2022-09-05T16:23:34.524Z,28.28
2022-09-05T16:23:39.296Z,28.39
2022-09-05T16:26:24.954Z,30.22
2022-09-05T16:29:13.275Z,31.23
2022-09-05T16:32:27.537Z,32.28
2022-09-05T16:34:57.663Z,32.75
2022-09-05T16:37:30.015Z,32.98
2022-09-05T16:40:00.025Z,33.39
2022-09-05T16:42:46.065Z,32.23
2022-09-05T16:45:50.152Z,31.76
2022-09-05T16:48:39.049Z,31.81
2022-09-05T16:51:35.827Z,32.41
2022-09-05T16:54:26.247Z,32.31
2022-09-05T16:57:02.479Z,32.80
2022-09-05T16:59:32.875Z,32.50
2022-09-05T17:02:07.363Z,30.98
2022-09-05T17:05:04.383Z,29.74
2022-09-05T17:07:50.972Z,28.87
2022-09-05T17:10:21.606Z,28.26
2022-09-05T17:12:53.129Z,27.88
2022-09-05T17:15:26.189Z,27.32
2022-09-05T17:18:31.854Z,27.30
2022-09-05T17:21:02.762Z,26.83
2022-09-05T17:29:20.504Z,26.81
2022-09-05T17:29:24.590Z,26.58
2022-09-05T17:32:47.161Z,26.16
2022-09-05T17:35:51.487Z,26.19
2022-09-05T17:38:40.437Z,25.99
2022-09-05T17:41:20.325Z,25.66
2022-09-05T17:43:58.450Z,25.66
2022-09-05T17:46:31.829Z,25.50
2022-09-05T17:49:19.131Z,25.23
2022-09-05T17:51:53.246Z,25.26
2022-09-05T17:54:30.597Z,25.15
2022-09-05T17:57:26.463Z,25.10
2022-09-05T17:59:54.918Z,24.93
2022-09-05T18:02:21.951Z,24.92
2022-09-05T18:04:51.522Z,24.45
2022-09-05T18:07:31.045Z,24.60
2022-09-05T18:13:13.713Z,24.40
2022-09-05T18:15:38.347Z,24.27
2022-09-05T18:18:08.657Z,24.14
2022-09-05T18:21:12.296Z,24.02
2022-09-05T18:24:00.381Z,24.13
2022-09-05T18:26:28.317Z,23.85
2022-09-05T18:29:03.891Z,23.87
2022-09-05T18:31:41.463Z,23.79
2022-09-05T18:34:15.607Z,23.70
2022-09-05T18:36:44.237Z,23.69
2022-09-05T18:39:24.632Z,23.81
2022-09-05T18:42:33.841Z,23.79
2022-09-05T18:45:01.046Z,23.69
2022-09-05T18:47:52.745Z,23.45
2022-09-05T18:50:29.212Z,23.17
2022-09-05T18:53:10.340Z,23.09
2022-09-05T18:56:14.287Z,22.96
2022-09-05T18:59:10.117Z,22.89
2022-09-05T19:01:43.538Z,22.81
2022-09-05T19:04:40.868Z,22.68
2022-09-05T19:07:18.558Z,22.71
2022-09-05T19:10:35.527Z,22.80
2022-09-05T19:13:15.691Z,22.80
2022-09-05T19:15:53.299Z,22.72
2022-09-05T19:18:34.870Z,22.71
2022-09-05T19:21:12.521Z,22.77
2022-09-05T19:23:50.344Z,22.48
2022-09-05T19:26:17.844Z,22.23
2022-09-05T19:36:49.723Z,22.19
2022-09-05T19:36:50.138Z,22.19
2022-09-05T19:37:03.296Z,21.70
2022-09-05T19:37:39.946Z,21.65
2022-09-05T19:46:22.420Z,21.58
2022-09-05T19:47:42.235Z,21.48
2022-09-05T19:47:50.283Z,21.62
2022-09-05T19:49:11.980Z,21.16
2022-09-05T19:51:43.682Z,21.46
2022-09-05T19:54:32.239Z,21.48
2022-09-05T19:57:05.815Z,21.41
2022-09-05T19:59:41.945Z,21.34
2022-09-05T20:02:20.161Z,21.28
2022-09-05T20:04:52.873Z,20.93
2022-09-05T20:07:27.235Z,21.09
2022-09-05T20:09:56.103Z,20.90
2022-09-05T20:12:35.739Z,20.91
2022-09-05T20:15:35.897Z,20.89
2022-09-05T20:18:24.500Z,20.99
2022-09-05T20:21:04.076Z,20.85
2022-09-05T20:23:32.190Z,20.81
2022-09-05T20:26:00.822Z,20.78
2022-09-05T20:28:35.689Z,20.75
2022-09-05T20:31:08.942Z,20.60
2022-09-05T20:33:58.370Z,20.61
2022-09-05T20:43:07.737Z,20.36
2022-09-05T20:43:23.804Z,20.45
2022-09-05T20:43:36.696Z,20.14
2022-09-05T20:45:01.132Z,20.18
2022-09-05T20:52:08.860Z,20.13
2022-09-05T20:54:14.764Z,20.04
2022-09-05T20:54:21.138Z,20.09
2022-09-05T20:56:23.412Z,20.05
2022-09-05T20:58:51.578Z,19.84
2022-09-05T21:01:23.417Z,19.85
2022-09-05T21:04:02.470Z,19.76
2022-09-05T21:06:34.484Z,19.69
2022-09-05T21:09:23.829Z,19.68
2022-09-05T21:11:52.675Z,19.70
2022-09-05T21:14:21.537Z,19.63
2022-09-05T21:16:57.300Z,19.52
2022-09-05T21:19:26.737Z,19.39
2022-09-05T21:22:16.379Z,19.26
2022-09-05T21:24:46.437Z,19.11
2022-09-05T21:27:16.602Z,19.11
2022-09-05T21:29:44.485Z,18.94
2022-09-05T21:32:20.713Z,18.73
2022-09-05T21:34:52.089Z,18.93
2022-09-05T21:37:20.871Z,18.83
2022-09-05T21:39:59.753Z,18.82
2022-09-05T21:45:12.677Z,18.56
2022-09-05T21:47:49.748Z,18.74
2022-09-05T21:48:15.546Z,18.78
2022-09-05T21:50:45.451Z,18.81
2022-09-05T21:56:38.675Z,18.66
2022-09-05T21:59:22.716Z,18.57
2022-09-05T21:59:27.971Z,18.72
2022-09-05T22:01:55.283Z,18.65
2022-09-05T22:04:22.521Z,18.42
2022-09-05T22:06:52.935Z,18.64
2022-09-05T22:09:22.267Z,18.63
2022-09-05T22:11:52.722Z,18.73
2022-09-05T22:14:22.189Z,18.63
2022-09-05T22:16:52.127Z,18.67
2022-09-05T22:19:26.211Z,18.62
2022-09-05T22:22:15.672Z,18.65
2022-09-05T22:25:06.261Z,18.68
2022-09-05T22:27:35.342Z,18.48
2022-09-05T22:30:04.344Z,18.69
2022-09-05T22:32:34.471Z,18.60
2022-09-05T22:35:26.846Z,18.53
2022-09-05T22:38:03.514Z,18.03
2022-09-05T22:40:32.676Z,18.49
2022-09-05T22:43:02.243Z,18.54
2022-09-05T22:45:30.907Z,18.29
2022-09-05T22:47:58.779Z,18.22
2022-09-05T22:50:26.748Z,18.16
2022-09-05T22:52:53.857Z,17.99
2022-09-05T22:55:20.927Z,17.97
2022-09-05T22:57:47.993Z,18.00
2022-09-05T23:00:15.326Z,17.98
2022-09-05T23:02:42.351Z,18.02
2022-09-05T23:05:09.622Z,17.79
2022-09-05T23:07:36.675Z,17.77
2022-09-05T23:10:04.032Z,17.92
2022-09-05T23:12:35.886Z,17.84
2022-09-05T23:15:03.311Z,17.95
2022-09-05T23:17:30.422Z,18.05
2022-09-05T23:19:57.558Z,17.87
2022-09-05T23:22:24.631Z,17.84
2022-09-05T23:24:51.747Z,17.84
2022-09-05T23:27:18.760Z,17.78
2022-09-05T23:29:45.803Z,17.53
2022-09-05T23:32:12.842Z,17.76
2022-09-05T23:34:39.854Z,17.62
2022-09-05T23:37:08.680Z,17.81
2022-09-05T23:39:35.796Z,17.76
2022-09-05T23:42:03.148Z,17.65
2022-09-05T23:44:30.217Z,17.78
2022-09-05T23:46:57.318Z,17.61
2022-09-05T23:49:24.365Z,17.65
2022-09-05T23:51:51.424Z,17.57
2022-09-05T23:54:18.516Z,17.67
2022-09-05T23:56:45.639Z,17.62
2022-09-05T23:59:12.802Z,17.41
